Time;durP1;ratioP1;P1;durP2;ratioP2;P2;SDS_P1;SDS_P2;PMS_P1;PMS_P2;Temp;Humidity;BMP_temperature;BMP_pressure;BME280_temperature;BME280_humidity;BME280_pressure;Samples;Min_cycle;Max_cycle;Signal;HPM_P1;HPM_P2
2023/06/10 00:01:39;;;;;;;7.80;3.72;;;;;;;17.53;69.79;98705.16;5148109;27;20092;-76
2023/06/10 00:04:06;;;;;;;6.35;4.15;;;;;;;17.47;70.22;98703.91;5147606;27;20039;-76
2023/06/10 00:06:35;;;;;;;4.28;3.67;;;;;;;17.48;70.11;98704.75;5147584;27;20291;-76
2023/06/10 00:09:04;;;;;;;4.28;3.70;;;;;;;17.13;70.36;98652.63;5147585;27;20043;-75
2023/06/10 00:11:31;;;;;;;4.75;4.22;;;;;;;17.44;70.13;98698.84;5147495;27;20246;-76
2023/06/10 00:13:58;;;;;;;4.72;3.80;;;;;;;17.43;70.26;98707.00;5147279;27;20047;-75
2023/06/10 00:16:25;;;;;;;4.25;3.65;;;;;;;17.40;70.34;98702.78;5146887;27;20053;-76
2023/06/10 00:18:55;;;;;;;4.97;4.15;;;;;;;17.36;70.48;98698.72;5147348;27;20061;-75
2023/06/10 00:21:24;;;;;;;4.60;3.65;;;;;;;17.38;70.36;98706.59;5147538;27;20039;-76
2023/06/10 00:23:51;;;;;;;4.53;4.05;;;;;;;17.36;70.35;98709.44;5147463;27;20080;-76
2023/06/10 00:26:18;;;;;;;5.03;4.18;;;;;;;17.37;70.10;98705.75;5147430;27;20043;-77
2023/06/10 00:28:45;;;;;;;4.20;3.75;;;;;;;17.36;70.17;98700.53;5147095;27;20046;-76
2023/06/10 00:31:11;;;;;;;5.32;4.28;;;;;;;17.34;70.26;98700.69;5147421;27;20034;-75
2023/06/10 00:33:38;;;;;;;4.88;4.10;;;;;;;17.34;70.38;98711.41;5147443;27;20233;-76
2023/06/10 00:36:07;;;;;;;5.18;4.68;;;;;;;17.33;70.75;98707.03;5146200;27;20046;-76
2023/06/10 00:38:34;;;;;;;6.53;4.97;;;;;;;17.33;70.66;98716.91;5147055;27;20047;-76
2023/06/10 00:41:01;;;;;;;4.80;4.07;;;;;;;17.33;70.94;98711.53;5146166;27;20037;-75
2023/06/10 00:43:27;;;;;;;5.30;4.30;;;;;;;16.31;70.69;98543.34;5146962;27;20295;-76
2023/06/10 00:45:55;;;;;;;6.45;4.57;;;;;;;16.73;71.13;98627.84;5146845;27;20092;-76
2023/06/10 00:48:22;;;;;;;5.25;4.35;;;;;;;17.34;70.59;98713.22;5146852;27;20035;-76
2023/06/10 00:50:49;;;;;;;7.68;4.40;;;;;;;17.34;70.86;98715.91;5147319;27;20043;-76
2023/06/10 00:53:18;;;;;;;4.88;4.22;;;;;;;17.30;70.94;98723.38;5147353;27;20102;-77
2023/06/10 00:55:45;;;;;;;5.10;4.13;;;;;;;17.27;71.01;98719.16;5146243;27;20088;-78
2023/06/10 00:58:12;;;;;;;5.72;4.43;;;;;;;16.67;70.74;98622.09;5145919;27;20043;-78
2023/06/10 01:00:39;;;;;;;6.20;4.43;;;;;;;17.30;70.69;98712.66;5147299;27;20050;-78
2023/06/10 01:03:07;;;;;;;5.97;4.80;;;;;;;17.30;70.81;98726.91;5145856;27;20035;-79
2023/06/10 01:05:34;;;;;;;5.63;4.72;;;;;;;17.30;71.09;98724.22;5147115;28;20051;-78
2023/06/10 01:08:05;;;;;;;5.40;4.70;;;;;;;17.29;71.05;98732.41;5147009;28;20043;-79
2023/06/10 01:10:36;;;;;;;4.78;4.03;;;;;;;17.24;71.27;98730.16;5146696;28;20088;-78
2023/06/10 01:13:06;;;;;;;5.13;4.63;;;;;;;16.93;71.15;98683.06;5147320;28;20043;-77
2023/06/10 01:15:35;;;;;;;6.78;4.82;;;;;;;17.23;71.49;98728.47;5146838;28;20035;-79
2023/06/10 01:18:03;;;;;;;6.47;4.32;;;;;;;17.23;71.24;98724.94;5145944;28;20035;-79
2023/06/10 01:20:31;;;;;;;5.10;4.53;;;;;;;16.45;71.15;98597.41;5147220;27;20053;-79
2023/06/10 01:23:00;;;;;;;5.47;4.88;;;;;;;17.01;71.61;98699.28;5146994;28;20291;-76
2023/06/10 01:25:28;;;;;;;7.45;5.47;;;;;;;17.25;71.43;98734.53;5146908;27;20050;-78
2023/06/10 01:28:03;;;;;;;6.18;5.53;;;;;;;17.25;72.34;98731.84;5150401;27;20299;-78
2023/06/10 01:30:45;;;;;;;6.45;5.53;;;;;;;17.28;72.23;98736.06;5150813;27;20067;-78
2023/06/10 01:33:15;;;;;;;7.32;5.80;;;;;;;16.69;72.07;98624.63;5150631;27;20043;-78
2023/06/10 01:35:45;;;;;;;7.35;6.20;;;;;;;17.31;72.60;98736.63;5150698;27;20049;-78
2023/06/10 01:38:15;;;;;;;6.97;6.28;;;;;;;17.33;72.00;98728.47;5151129;27;20054;-78
2023/06/10 01:40:44;;;;;;;5.85;5.25;;;;;;;17.35;72.01;98739.03;5149700;27;20039;-78
2023/06/10 01:43:10;;;;;;;6.47;5.55;;;;;;;17.35;72.22;98739.03;5150383;27;20046;-79
2023/06/10 01:45:37;;;;;;;8.27;5.97;;;;;;;17.35;72.52;98729.16;5149359;27;20061;-78
2023/06/10 01:48:04;;;;;;;8.05;6.82;;;;;;;17.37;72.24;98731.69;5150431;27;20035;-78
2023/06/10 01:50:31;;;;;;;7.57;6.40;;;;;;;17.38;72.68;98722.66;5150910;27;20309;-78
2023/06/10 01:52:59;;;;;;;9.07;7.57;;;;;;;17.40;72.39;98734.09;5149367;27;20046;-78
2023/06/10 01:55:28;;;;;;;12.27;6.45;;;;;;;17.40;72.47;98718.03;5150740;27;20088;-79
2023/06/10 01:57:55;;;;;;;7.32;6.25;;;;;;;17.39;72.92;98729.72;5150210;27;20092;-78
2023/06/10 02:00:22;;;;;;;8.82;6.97;;;;;;;17.39;72.85;98727.88;5150104;27;20045;-78
2023/06/10 02:02:49;;;;;;;8.88;7.97;;;;;;;17.40;72.85;98726.91;5149944;27;20349;-78
2023/06/10 02:05:18;;;;;;;9.80;8.77;;;;;;;16.88;73.03;98648.69;5149935;27;20039;-78
2023/06/10 02:07:45;;;;;;;9.88;8.80;;;;;;;17.42;72.97;98740.16;5149132;27;20039;-79
2023/06/10 02:10:11;;;;;;;9.23;8.20;;;;;;;17.44;73.28;98739.03;5150167;27;20194;-79
2023/06/10 02:12:39;;;;;;;8.73;7.68;;;;;;;17.46;73.45;98741.56;5150129;27;20060;-78
2023/06/10 02:15:07;;;;;;;8.90;7.82;;;;;;;17.46;72.90;98739.72;5150062;27;20047;-78
2023/06/10 02:17:34;;;;;;;9.35;8.35;;;;;;;17.46;73.37;98737.03;5148907;27;20035;-78
2023/06/10 02:20:06;;;;;;;8.65;7.75;;;;;;;17.47;73.41;98738.72;5150537;27;20043;-77
2023/06/10 02:22:34;;;;;;;8.00;7.05;;;;;;;17.46;73.38;98737.03;5149865;27;20115;-78
2023/06/10 02:25:01;;;;;;;8.95;7.25;;;;;;;17.45;73.39;98740.72;5148755;27;20035;-78
2023/06/10 02:27:28;;;;;;;8.73;7.18;;;;;;;17.46;73.38;98741.56;5148736;27;20039;-77
2023/06/10 02:29:56;;;;;;;8.85;7.95;;;;;;;17.47;73.25;98737.88;5149805;27;20047;-78
2023/06/10 02:32:23;;;;;;;7.35;6.65;;;;;;;17.25;72.93;98701.53;5148787;27;20051;-78
2023/06/10 02:34:50;;;;;;;7.82;7.03;;;;;;;17.46;73.05;98734.38;5150048;27;20039;-78
2023/06/10 02:37:17;;;;;;;8.20;7.45;;;;;;;17.48;73.17;98732.38;5149657;27;20047;-77
2023/06/10 02:39:44;;;;;;;9.35;8.23;;;;;;;17.47;73.24;98729.84;5148683;27;20043;-78
2023/06/10 02:42:11;;;;;;;7.78;6.93;;;;;;;17.47;73.05;98735.22;5149834;27;20213;-77
2023/06/10 02:44:38;;;;;;;9.75;7.93;;;;;;;17.47;73.01;98725.34;5148720;27;20253;-78
2023/06/10 02:47:07;;;;;;;8.02;7.22;;;;;;;17.24;73.32;98700.69;5149261;27;20047;-77
2023/06/10 02:49:34;;;;;;;10.68;7.57;;;;;;;17.47;73.21;98735.22;5148337;27;20035;-76
2023/06/10 02:52:01;;;;;;;8.45;7.53;;;;;;;17.45;73.50;98738.03;5149463;27;20050;-76
2023/06/10 02:54:28;;;;;;;8.60;7.70;;;;;;;17.45;73.18;98740.72;5149714;27;20047;-78
2023/06/10 02:56:56;;;;;;;8.27;7.10;;;;;;;17.43;73.28;98741.84;5149081;27;20294;-77
2023/06/10 02:59:23;;;;;;;8.15;7.35;;;;;;;17.43;73.54;98747.19;5149062;27;20043;-78
2023/06/10 03:01:50;;;;;;;9.70;8.07;;;;;;;17.43;73.24;98742.69;5148215;27;20035;-78
2023/06/10 03:04:18;;;;;;;8.30;7.43;;;;;;;17.42;73.50;98748.19;5149251;27;20035;-78
2023/06/10 03:06:46;;;;;;;8.98;7.07;;;;;;;17.43;73.21;98745.38;5149674;27;20042;-78
2023/06/10 03:09:16;;;;;;;7.28;6.57;;;;;;;17.44;73.44;98748.88;5149305;27;20072;-78
2023/06/10 03:11:42;;;;;;;8.45;7.55;;;;;;;17.44;73.42;98749.72;5149082;27;20106;-78
2023/06/10 03:14:09;;;;;;;10.25;7.57;;;;;;;17.46;73.58;98757.63;5147967;27;20036;-78
2023/06/10 03:16:40;;;;;;;7.97;6.82;;;;;;;17.46;73.42;98750.44;5149134;27;20100;-77
2023/06/10 03:19:08;;;;;;;8.80;7.20;;;;;;;17.48;73.67;98747.63;5149566;27;20043;-78
2023/06/10 03:21:37;;;;;;;10.43;8.13;;;;;;;17.48;73.70;98747.63;5148901;27;20301;-77
2023/06/10 03:24:05;;;;;;;8.88;8.07;;;;;;;17.27;73.63;98711.13;5148573;27;20031;-77
2023/06/10 03:26:32;;;;;;;9.23;8.32;;;;;;;17.48;73.78;98745.78;5149126;27;20049;-78
2023/06/10 03:28:59;;;;;;;10.05;8.73;;;;;;;17.49;73.87;98752.81;5148715;27;20091;-78
2023/06/10 03:31:26;;;;;;;12.85;8.30;;;;;;;17.49;73.63;98744.78;5149221;27;20047;-78
2023/06/10 03:33:52;;;;;;;9.00;7.72;;;;;;;17.50;74.03;98746.47;5148801;27;20038;-78
2023/06/10 03:36:19;;;;;;;8.27;7.15;;;;;;;17.50;73.96;98746.47;5147793;27;20317;-78
2023/06/10 03:38:48;;;;;;;9.02;8.13;;;;;;;17.52;73.82;98746.34;5148446;27;20092;-78
2023/06/10 03:41:14;;;;;;;9.07;7.68;;;;;;;17.53;74.00;98746.19;5148699;27;20073;-78
2023/06/10 03:43:41;;;;;;;8.20;7.22;;;;;;;17.55;74.03;98749.56;5148543;27;20114;-78
2023/06/10 03:46:08;;;;;;;9.85;8.32;;;;;;;17.55;74.05;98752.25;5148676;27;20055;-78
2023/06/10 03:48:36;;;;;;;9.80;7.90;;;;;;;17.57;74.10;98754.78;5148632;27;20283;-78
2023/06/10 03:51:03;;;;;;;9.10;8.25;;;;;;;17.57;73.98;98750.28;5147983;27;20050;-78
2023/06/10 03:53:30;;;;;;;9.68;8.27;;;;;;;17.58;73.89;98757.31;5148828;27;20318;-78
2023/06/10 03:55:59;;;;;;;11.40;8.90;;;;;;;17.58;74.16;98754.66;5147236;27;20043;-78
2023/06/10 03:58:26;;;;;;;9.20;8.20;;;;;;;17.60;74.10;98755.34;5148708;27;20080;-78
2023/06/10 04:00:53;;;;;;;9.95;8.95;;;;;;;17.61;74.03;98756.22;5148341;27;20051;-78
2023/06/10 04:03:21;;;;;;;10.43;8.45;;;;;;;17.63;73.67;98756.94;5148539;27;20102;-78
2023/06/10 04:05:48;;;;;;;10.68;9.20;;;;;;;17.65;73.83;98754.94;5147200;27;20127;-78
2023/06/10 04:08:15;;;;;;;10.05;9.07;;;;;;;17.67;73.82;98762.84;5146962;27;20137;-78
2023/06/10 04:10:41;;;;;;;11.77;10.65;;;;;;;17.68;74.17;98764.53;5148140;27;20056;-78
2023/06/10 04:13:09;;;;;;;11.32;10.05;;;;;;;17.68;74.12;98767.22;5148024;27;20222;-78
2023/06/10 04:15:36;;;;;;;12.43;10.50;;;;;;;17.68;73.80;98765.38;5147584;27;20091;-78
2023/06/10 04:18:03;;;;;;;12.02;10.77;;;;;;;17.69;73.71;98766.22;5146862;27;20084;-78
2023/06/10 04:20:29;;;;;;;10.57;9.27;;;;;;;17.71;74.06;98764.25;5148065;27;20279;-78
2023/06/10 04:22:56;;;;;;;11.65;10.45;;;;;;;17.72;73.68;98764.09;5147429;27;20260;-78
2023/06/10 04:25:24;;;;;;;11.63;10.43;;;;;;;17.73;73.62;98768.47;5146649;27;20038;-78
2023/06/10 04:27:50;;;;;;;13.65;12.23;;;;;;;17.74;73.62;98761.28;5147496;27;20103;-78
2023/06/10 04:30:19;;;;;;;11.68;10.48;;;;;;;17.75;74.04;98762.97;5147533;27;20244;-78
2023/06/10 04:32:46;;;;;;;12.40;11.10;;;;;;;17.75;73.95;98765.66;5147688;27;20059;-78
2023/06/10 04:35:14;;;;;;;12.40;11.10;;;;;;;17.59;73.81;98734.91;5147392;27;20299;-78
2023/06/10 04:37:41;;;;;;;10.85;9.75;;;;;;;17.80;73.91;98758.03;5147630;27;20038;-78
2023/06/10 04:40:08;;;;;;;10.65;9.52;;;;;;;17.80;73.50;98748.16;5147698;27;20045;-78
2023/06/10 04:42:35;;;;;;;11.65;10.43;;;;;;;17.81;73.83;98754.34;5146371;27;20203;-78
2023/06/10 04:45:02;;;;;;;12.57;11.27;;;;;;;17.83;73.71;98763.94;5147066;27;20371;-78
2023/06/10 04:47:33;;;;;;;11.88;10.68;;;;;;;16.84;73.59;98590.25;5147462;27;20058;-78
2023/06/10 04:49:59;;;;;;;10.88;9.77;;;;;;;17.86;73.89;98757.44;5147605;27;20050;-78
2023/06/10 04:52:26;;;;;;;11.77;10.48;;;;;;;17.89;73.63;98763.38;5147808;27;20294;-78
2023/06/10 04:54:53;;;;;;;13.38;11.07;;;;;;;17.89;73.60;98759.84;5147420;27;20031;-78
2023/06/10 04:57:20;;;;;;;11.10;9.52;;;;;;;17.76;73.28;98736.03;5147493;27;20043;-78
2023/06/10 04:59:46;;;;;;;11.80;10.63;;;;;;;17.91;73.88;98766.75;5147751;27;20053;-78
2023/06/10 05:02:13;;;;;;;12.00;10.80;;;;;;;17.92;73.58;98759.56;5146699;27;20046;-78
2023/06/10 05:04:41;;;;;;;13.07;11.45;;;;;;;17.94;73.50;98762.94;5146990;27;20038;-78
2023/06/10 05:07:08;;;;;;;13.15;11.75;;;;;;;17.97;73.70;98754.59;5147108;28;20049;-78
2023/06/10 05:09:35;;;;;;;12.75;11.43;;;;;;;17.98;73.49;98758.97;5146899;28;20054;-78
2023/06/10 05:12:02;;;;;;;13.73;11.98;;;;;;;17.95;73.21;98764.63;5145886;28;20109;-79
2023/06/10 05:14:29;;;;;;;13.40;12.10;;;;;;;17.94;73.35;98762.94;5146966;28;20038;-78
2023/06/10 05:16:55;;;;;;;17.23;12.75;;;;;;;17.96;73.25;98760.94;5147014;28;20039;-79
2023/06/10 05:19:22;;;;;;;14.65;13.10;;;;;;;18.00;73.15;98764.19;5146666;28;20076;-78
2023/06/10 05:21:50;;;;;;;14.20;12.80;;;;;;;18.03;73.38;98766.56;5147275;28;20047;-78
2023/06/10 05:24:17;;;;;;;14.18;12.77;;;;;;;18.04;73.26;98761.06;5146887;28;20047;-78
2023/06/10 05:26:44;;;;;;;15.68;14.07;;;;;;;18.05;73.34;98765.44;5147255;28;20336;-78
2023/06/10 05:29:11;;;;;;;15.52;13.80;;;;;;;18.06;73.36;98769.81;5147011;28;20295;-78
2023/06/10 05:31:37;;;;;;;14.80;12.80;;;;;;;18.08;73.42;98764.28;5147085;28;20248;-78
2023/06/10 05:34:04;;;;;;;13.80;12.38;;;;;;;18.08;73.31;98773.19;5146612;28;20222;-78
2023/06/10 05:36:32;;;;;;;16.25;14.25;;;;;;;18.10;73.14;98771.19;5146925;28;20034;-78
2023/06/10 05:39:00;;;;;;;14.88;13.35;;;;;;;18.12;73.10;98776.41;5147005;28;20057;-78
2023/06/10 05:41:26;;;;;;;14.50;13.00;;;;;;;18.11;73.28;98770.22;5146697;28;20070;-78
2023/06/10 05:43:53;;;;;;;14.05;12.48;;;;;;;17.92;72.88;98740.78;5146377;28;20218;-79
2023/06/10 05:46:20;;;;;;;15.05;13.55;;;;;;;18.15;73.34;98776.97;5145704;28;20122;-78
2023/06/10 05:48:47;;;;;;;15.57;12.57;;;;;;;18.19;72.97;98766.78;5145867;28;20181;-77
2023/06/10 05:51:14;;;;;;;13.80;12.48;;;;;;;18.21;73.23;98778.22;5147049;28;20050;-76
2023/06/10 05:53:41;;;;;;;14.32;12.90;;;;;;;17.98;73.08;98745.56;5145603;28;20042;-76
2023/06/10 05:56:09;;;;;;;12.98;11.70;;;;;;;18.10;72.90;98762.31;5147566;28;20272;-76
2023/06/10 05:58:36;;;;;;;14.20;12.75;;;;;;;18.24;73.07;98785.97;5146896;28;20088;-76
2023/06/10 06:01:02;;;;;;;13.38;12.07;;;;;;;18.23;72.85;98781.59;5146430;28;20047;-76
2023/06/10 06:03:29;;;;;;;13.60;12.20;;;;;;;18.22;72.95;98782.59;5146892;28;20043;-76
2023/06/10 06:05:56;;;;;;;15.07;11.85;;;;;;;18.21;72.77;98780.91;5146228;28;20043;-76
2023/06/10 06:08:22;;;;;;;14.80;13.40;;;;;;;18.19;72.89;98785.56;5146294;28;20047;-76
2023/06/10 06:10:49;;;;;;;15.55;13.95;;;;;;;18.19;73.33;98783.72;5145464;28;20042;-76
2023/06/10 06:13:17;;;;;;;16.42;12.93;;;;;;;18.19;73.23;98783.72;5149111;27;20045;-76
2023/06/10 06:15:44;;;;;;;14.23;12.73;;;;;;;17.99;73.35;98746.41;5149915;27;20054;-76
2023/06/10 06:18:11;;;;;;;14.77;12.23;;;;;;;18.20;73.26;98787.25;5150010;27;20035;-76
2023/06/10 06:20:38;;;;;;;14.40;12.93;;;;;;;18.21;73.49;98805.03;5149763;27;20055;-76
2023/06/10 06:23:04;;;;;;;17.00;13.65;;;;;;;18.18;73.10;98800.81;5148923;27;20092;-76
2023/06/10 06:25:32;;;;;;;16.23;14.38;;;;;;;18.18;73.15;98800.81;5149677;27;20103;-76
2023/06/10 06:27:58;;;;;;;15.27;13.27;;;;;;;18.19;73.38;98807.03;5149647;27;20045;-77
2023/06/10 06:30:26;;;;;;;17.70;14.25;;;;;;;18.17;73.71;98799.13;5149567;27;20110;-76
2023/06/10 06:32:53;;;;;;;15.57;13.63;;;;;;;17.95;73.53;98761.94;5149554;27;20104;-76
2023/06/10 06:35:20;;;;;;;15.15;13.43;;;;;;;18.19;73.39;98796.31;5149506;27;20046;-77
2023/06/10 06:37:47;;;;;;;17.85;14.73;;;;;;;18.19;73.39;98793.63;5149583;27;20053;-77
2023/06/10 06:40:14;;;;;;;16.20;14.45;;;;;;;18.19;73.75;98802.50;5149766;27;20039;-76
2023/06/10 06:42:41;;;;;;;17.60;14.85;;;;;;;18.18;73.35;98799.97;5149498;27;20049;-77
2023/06/10 06:45:08;;;;;;;15.68;14.07;;;;;;;18.19;73.39;98798.97;5148187;27;20054;-78
2023/06/10 06:47:36;;;;;;;20.30;14.45;;;;;;;18.19;73.33;98785.56;5148407;27;20061;-76
2023/06/10 06:50:03;;;;;;;17.25;15.25;;;;;;;18.19;73.55;98797.16;5149567;27;20043;-77
2023/06/10 06:52:30;;;;;;;15.10;13.38;;;;;;;18.19;73.36;98794.47;5149612;27;20069;-77
2023/06/10 06:54:57;;;;;;;16.38;14.50;;;;;;;18.18;73.45;98787.41;5149434;27;20304;-77
2023/06/10 06:57:24;;;;;;;19.52;16.05;;;;;;;18.21;73.36;98802.34;5148170;27;20287;-77
2023/06/10 06:59:50;;;;;;;14.82;13.32;;;;;;;18.23;73.64;98797.69;5148362;27;20060;-77
2023/06/10 07:02:18;;;;;;;16.30;14.68;;;;;;;18.24;73.53;98802.06;5149340;27;20043;-77
2023/06/10 07:04:48;;;;;;;16.20;14.57;;;;;;;18.26;73.61;98797.41;5149507;27;20167;-77
2023/06/10 07:07:15;;;;;;;16.70;14.95;;;;;;;17.77;73.30;98727.00;5149047;27;20058;-77
2023/06/10 07:09:42;;;;;;;17.17;15.45;;;;;;;18.10;73.18;98781.94;5148910;27;20043;-77
2023/06/10 07:12:09;;;;;;;16.52;14.77;;;;;;;18.33;72.96;98800.34;5148767;27;20088;-77
2023/06/10 07:14:36;;;;;;;15.80;14.30;;;;;;;18.35;73.05;98806.41;5149454;27;20073;-77
2023/06/10 07:17:03;;;;;;;15.50;13.95;;;;;;;18.35;72.67;98803.72;5148940;27;20184;-78
2023/06/10 07:19:30;;;;;;;16.73;14.18;;;;;;;18.34;72.90;98804.72;5149198;27;20111;-78
2023/06/10 07:21:58;;;;;;;21.08;13.93;;;;;;;18.33;72.84;98811.06;5148590;27;20046;-78
2023/06/10 07:24:25;;;;;;;16.23;14.18;;;;;;;18.32;72.96;98801.34;5147883;27;20287;-78
2023/06/10 07:26:51;;;;;;;16.80;13.60;;;;;;;18.33;72.95;98798.50;5148293;27;20043;-78
2023/06/10 07:29:18;;;;;;;17.25;13.88;;;;;;;18.35;72.45;98803.72;5148745;27;20038;-78
2023/06/10 07:31:45;;;;;;;15.68;14.07;;;;;;;18.35;72.79;98809.09;5148942;27;20051;-78
2023/06/10 07:34:12;;;;;;;16.98;15.05;;;;;;;18.36;72.50;98806.25;5147416;27;20035;-78
2023/06/10 07:36:38;;;;;;;17.50;15.02;;;;;;;18.37;72.56;98799.06;5148514;27;20291;-78
2023/06/10 07:39:07;;;;;;;16.83;15.02;;;;;;;17.91;72.86;98723.00;5148765;27;20291;-78
2023/06/10 07:41:35;;;;;;;16.20;14.63;;;;;;;18.41;72.59;98813.88;5148710;27;20279;-78
2023/06/10 07:44:01;;;;;;;15.20;13.35;;;;;;;18.43;72.29;98795.78;5147930;27;20047;-78
2023/06/10 07:46:28;;;;;;;16.55;14.30;;;;;;;18.43;72.68;98793.94;5148403;27;20233;-78
2023/06/10 07:48:55;;;;;;;16.60;14.93;;;;;;;17.95;72.21;98724.41;5147879;27;20225;-78
2023/06/10 07:51:22;;;;;;;18.80;15.15;;;;;;;18.48;72.29;98807.75;5146908;27;20037;-78
2023/06/10 07:53:49;;;;;;;17.10;14.68;;;;;;;18.52;72.28;98808.34;5148234;27;20242;-78
2023/06/10 07:56:17;;;;;;;16.45;13.77;;;;;;;18.54;72.17;98809.03;5147872;27;20066;-78
2023/06/10 07:58:44;;;;;;;15.35;13.35;;;;;;;18.57;72.13;98816.78;5148106;27;20043;-78
2023/06/10 08:01:11;;;;;;;17.52;14.88;;;;;;;18.59;71.94;98822.84;5147635;27;20039;-78
2023/06/10 08:03:37;;;;;;;15.30;13.70;;;;;;;18.60;71.56;98821.88;5147483;27;20056;-78
2023/06/10 08:06:05;;;;;;;15.98;14.32;;;;;;;17.63;71.94;98650.59;5147431;27;20034;-78
2023/06/10 08:08:32;;;;;;;14.75;13.20;;;;;;;18.65;71.67;98818.75;5146612;27;20042;-78
2023/06/10 08:10:59;;;;;;;15.60;14.00;;;;;;;18.67;71.52;98814.06;5147550;27;20088;-78
2023/06/10 08:13:27;;;;;;;15.45;13.95;;;;;;;18.67;71.70;98814.91;5147509;27;20039;-78
2023/06/10 08:15:55;;;;;;;15.40;13.25;;;;;;;18.69;72.00;98812.09;5147290;27;20103;-78
2023/06/10 08:18:22;;;;;;;15.15;13.57;;;;;;;18.70;71.52;98811.94;5147522;27;20062;-78
2023/06/10 08:20:49;;;;;;;16.38;14.70;;;;;;;18.71;71.74;98812.78;5147366;27;20035;-78
2023/06/10 08:23:15;;;;;;;15.82;14.10;;;;;;;18.73;71.51;98810.78;5147471;27;20054;-78
2023/06/10 08:25:42;;;;;;;16.00;14.23;;;;;;;18.73;71.57;98810.78;5147070;27;20039;-78
2023/06/10 08:28:09;;;;;;;14.07;12.68;;;;;;;18.74;71.55;98815.16;5147290;27;20061;-78
2023/06/10 08:30:37;;;;;;;15.18;13.57;;;;;;;18.74;71.60;98824.06;5147072;27;20058;-78
2023/06/10 08:33:04;;;;;;;13.82;12.43;;;;;;;18.74;71.77;98818.69;5147015;27;20206;-78
2023/06/10 08:35:31;;;;;;;16.73;13.43;;;;;;;18.74;71.34;98816.00;5146817;27;20254;-78
2023/06/10 08:37:58;;;;;;;20.92;14.20;;;;;;;18.75;71.37;98820.38;5147227;27;20276;-78
2023/06/10 08:40:25;;;;;;;15.40;13.80;;;;;;;18.75;71.77;98823.06;5147337;27;20199;-78
2023/06/10 08:43:01;;;;;;;16.00;13.23;;;;;;;18.76;71.71;98830.13;5147488;27;20164;-78
2023/06/10 08:45:31;;;;;;;15.57;13.98;;;;;;;18.76;71.52;98816.69;5146562;27;20055;-78
2023/06/10 08:48:01;;;;;;;17.08;14.07;;;;;;;18.77;71.55;98814.88;5146891;27;20066;-78
2023/06/10 08:50:30;;;;;;;17.30;15.40;;;;;;;16.62;71.42;98465.63;5146541;27;20043;-78
2023/06/10 08:53:00;;;;;;;19.55;17.52;;;;;;;18.80;71.48;98820.78;5147086;27;20043;-78
2023/06/10 08:55:31;;;;;;;17.15;15.30;;;;;;;18.84;71.17;98826.69;5147020;27;20184;-78
2023/06/10 08:57:58;;;;;;;17.00;15.20;;;;;;;18.88;71.30;98828.94;5146624;27;20047;-78
2023/06/10 09:00:27;;;;;;;16.65;14.50;;;;;;;18.92;71.34;98822.25;5147181;27;20092;-78
2023/06/10 09:02:53;;;;;;;16.88;15.15;;;;;;;18.97;71.25;98826.34;5147047;27;20186;-78
2023/06/10 09:05:22;;;;;;;16.08;14.48;;;;;;;18.98;71.02;98828.03;5147014;27;20043;-78
2023/06/10 09:07:49;;;;;;;16.60;14.90;;;;;;;19.01;71.14;98819.66;5147065;27;20046;-78
2023/06/10 09:10:16;;;;;;;21.30;15.07;;;;;;;19.05;70.84;98815.69;5146553;28;20039;-78
2023/06/10 09:12:43;;;;;;;16.63;13.60;;;;;;;19.09;70.74;98822.44;5146529;28;20053;-78
2023/06/10 09:15:12;;;;;;;14.70;13.35;;;;;;;19.09;70.86;98819.75;5146586;28;20221;-78
2023/06/10 09:17:40;;;;;;;18.50;12.90;;;;;;;19.12;70.84;98822.16;5146462;28;20193;-78
2023/06/10 09:20:08;;;;;;;15.00;13.50;;;;;;;19.17;70.81;98827.91;5146592;28;20322;-78
2023/06/10 09:22:36;;;;;;;14.98;13.35;;;;;;;19.20;70.61;98824.91;5146908;28;20058;-78
2023/06/10 09:25:04;;;;;;;14.23;12.88;;;;;;;19.22;70.10;98823.78;5146636;28;20230;-78
2023/06/10 09:27:32;;;;;;;14.38;13.07;;;;;;;19.03;70.37;98793.50;5146733;28;20043;-78
2023/06/10 09:29:59;;;;;;;16.23;13.43;;;;;;;19.28;70.28;98834.91;5146756;28;20096;-78
2023/06/10 09:32:27;;;;;;;14.50;12.82;;;;;;;19.31;70.16;98826.53;5146383;28;20027;-78
2023/06/10 09:34:54;;;;;;;15.90;14.30;;;;;;;19.34;70.16;98823.53;5146606;28;20100;-78
2023/06/10 09:37:22;;;;;;;13.98;12.38;;;;;;;19.37;69.77;98829.47;5146494;28;20098;-78
2023/06/10 09:40:04;;;;;;;14.82;13.07;;;;;;;19.39;69.67;98830.19;5146827;28;20042;-78
2023/06/10 09:42:34;;;;;;;13.75;12.35;;;;;;;19.42;69.61;98820.97;5146569;28;20035;-78
2023/06/10 09:45:01;;;;;;;18.10;15.15;;;;;;;19.48;69.63;98820.34;5146031;28;20047;-78
2023/06/10 09:47:28;;;;;;;14.23;12.82;;;;;;;19.52;69.26;98844.06;5147728;27;20050;-78
2023/06/10 09:49:55;;;;;;;16.75;15.00;;;;;;;19.55;68.97;98816.06;5150693;27;20057;-78
2023/06/10 09:52:25;;;;;;;19.08;14.30;;;;;;;19.60;68.76;98810.22;5150738;27;20092;-78
2023/06/10 09:54:53;;;;;;;15.70;13.98;;;;;;;19.26;69.00;98743.72;5150745;27;20039;-78
2023/06/10 09:57:22;;;;;;;14.55;13.18;;;;;;;19.68;68.50;98812.97;5150677;27;20047;-78
2023/06/10 09:59:53;;;;;;;14.90;13.43;;;;;;;19.74;68.69;98804.28;5149130;27;20057;-78
2023/06/10 10:02:20;;;;;;;13.10;11.73;;;;;;;19.83;68.75;98798.00;5150444;27;20043;-78
2023/06/10 10:04:47;;;;;;;13.32;12.02;;;;;;;19.91;68.37;98806.13;5150118;27;20053;-78
2023/06/10 10:07:14;;;;;;;14.82;12.35;;;;;;;19.98;68.16;98803.66;5150424;27;20043;-78
2023/06/10 10:09:42;;;;;;;13.02;11.32;;;;;;;20.04;67.93;98803.88;5150035;27;20045;-78
2023/06/10 10:12:11;;;;;;;12.60;11.30;;;;;;;20.11;67.70;98798.69;5150311;27;20039;-78
2023/06/10 10:14:44;;;;;;;13.65;12.35;;;;;;;20.16;67.52;98796.38;5148904;27;20038;-78
2023/06/10 10:17:12;;;;;;;12.10;10.90;;;;;;;20.16;67.17;98793.69;5150049;27;20173;-78
2023/06/10 10:19:47;;;;;;;13.60;11.70;;;;;;;20.21;67.22;98791.34;5149617;27;20050;-78
2023/06/10 10:22:21;;;;;;;12.68;11.35;;;;;;;19.22;67.33;98611.56;5148779;27;20046;-78
2023/06/10 10:24:51;;;;;;;13.55;12.15;;;;;;;20.37;67.08;98787.94;5149949;27;20041;-78
2023/06/10 10:27:21;;;;;;;12.73;11.02;;;;;;;20.42;66.45;98786.47;5148530;27;20039;-78
2023/06/10 10:29:53;;;;;;;12.40;11.20;;;;;;;20.43;65.77;98782.75;5148530;27;20043;-78
2023/06/10 10:32:26;;;;;;;12.80;10.95;;;;;;;20.47;66.09;98781.44;5148737;27;20096;-78
2023/06/10 10:35:05;;;;;;;12.87;11.17;;;;;;;20.55;66.28;98785.16;5149327;27;20043;-78
2023/06/10 10:37:32;;;;;;;13.55;12.20;;;;;;;20.65;65.98;98783.19;5149399;27;20568;-78
2023/06/10 10:40:00;;;;;;;11.30;10.15;;;;;;;20.80;65.48;98782.41;5149803;27;20039;-78
2023/06/10 10:42:28;;;;;;;11.95;10.85;;;;;;;20.92;65.11;98782.09;5149370;27;20043;-78
2023/06/10 10:44:57;;;;;;;12.35;11.05;;;;;;;21.05;64.43;98777.13;5148744;27;20059;-77
2023/06/10 10:47:30;;;;;;;11.27;10.13;;;;;;;21.18;64.25;98772.09;5149039;27;20039;-78
2023/06/10 10:49:58;;;;;;;12.82;11.52;;;;;;;21.26;64.26;98771.25;5149027;27;20088;-78
2023/06/10 10:52:26;;;;;;;11.88;10.68;;;;;;;21.32;63.95;98767.91;5149302;27;20035;-78
2023/06/10 10:54:54;;;;;;;11.60;9.63;;;;;;;21.37;63.63;98768.25;5149106;27;20187;-78
2023/06/10 10:57:23;;;;;;;11.40;10.30;;;;;;;21.38;63.57;98765.38;5148220;27;20141;-78
2023/06/10 10:59:56;;;;;;;10.50;9.50;;;;;;;21.07;62.66;98721.22;5148133;27;20051;-77
2023/06/10 11:02:39;;;;;;;12.18;10.18;;;;;;;21.50;62.60;98760.50;5148703;27;20039;-78
2023/06/10 11:05:07;;;;;;;10.35;9.35;;;;;;;21.58;63.33;98765.88;5149223;27;20039;-78
2023/06/10 11:07:36;;;;;;;11.10;10.10;;;;;;;21.72;62.96;98754.44;5148722;27;20053;-78
2023/06/10 11:10:04;;;;;;;11.30;10.10;;;;;;;21.89;62.59;98755.28;5147653;27;20326;-78
2023/06/10 11:12:43;;;;;;;9.88;8.88;;;;;;;21.97;60.92;98751.72;5148651;27;20062;-78
2023/06/10 11:15:11;;;;;;;9.80;8.82;;;;;;;21.96;61.61;98739.25;5148489;27;20051;-78
2023/06/10 11:17:38;;;;;;;10.02;9.02;;;;;;;21.93;61.57;98743.13;5148393;27;20043;-78
2023/06/10 11:20:07;;;;;;;10.98;9.88;;;;;;;21.98;61.51;98743.47;5148752;27;20172;-78
2023/06/10 11:22:34;;;;;;;10.82;9.73;;;;;;;22.02;61.60;98731.31;5148293;27;20106;-78
2023/06/10 11:25:00;;;;;;;9.68;8.77;;;;;;;22.05;61.64;98732.81;5148325;27;20204;-78
2023/06/10 11:27:39;;;;;;;13.48;10.15;;;;;;;22.03;59.59;98716.81;5148409;27;20035;-78